Terminal Aerodrome Forecast
Issued by NWS

Home | Current Version | Previous Version | Graphics & Text | Print | Product List | Glossary On
Versions: 1 2 3 4 5 6 7 8 9 10 11 12 13 14 15 16 17 18 19 20 21 22 23
000
FTUS43 KBIS 282023 AAC
TAFJMS
TAF AMD
KJMS 282023Z 2820/2918 34012G37KT P6SM -RA VCTS BKN070CB OVC100
      TEMPO 2820/2822 33029G43KT 6SM -TSRA BKN050CB
     FM290000 33020G30KT P6SM VCSH BKN090
     FM290200 33014KT P6SM BKN090
     FM291200 32013KT P6SM OVC030=

USA.gov is the U.S. government's official web portal to all federal, state and local government web resources and services.